Terminal Aerodrome Forecast
Issued by NWS Cleveland, OH

Home | Current Version | Previous Version | Graphics & Text | Print | Product List | Glossary Off
Versions: 1 2 3 4 5 6 7 8 9 10 11 12 13 14 15 16 17 18 19 20 21 22 23 24 25

000
FTUS41 KCLE 162218 AAD
TAFERI
TAF AMD
KERI 162218Z 1622/1718 06004KT 6SM BR OVC012
     FM170100 03004KT P6SM OVC012
     FM170900 09006KT P6SM OVC025
     FM171500 09005KT P6SM OVC040=

USA.gov is the U.S. government's official web portal to all federal, state and local government web resources and services.